sensor_id;sensor_type;location;lat;lon;timestamp;P1;durP1;ratioP1;P2;durP2;ratioP2
10452;SDS011;5274;51.992;8.518;2022-07-15T00:01:46;4.30;;;2.00;;
10452;SDS011;5274;51.992;8.518;2022-07-15T00:04:11;4.35;;;1.67;;
10452;SDS011;5274;51.992;8.518;2022-07-15T00:06:37;7.10;;;1.85;;
10452;SDS011;5274;51.992;8.518;2022-07-15T00:09:02;2.70;;;1.88;;
10452;SDS011;5274;51.992;8.518;2022-07-15T00:11:28;2.33;;;2.03;;
10452;SDS011;5274;51.992;8.518;2022-07-15T00:13:53;3.35;;;1.70;;
10452;SDS011;5274;51.992;8.518;2022-07-15T00:16:20;5.28;;;1.90;;
10452;SDS011;5274;51.992;8.518;2022-07-15T00:18:45;3.90;;;2.00;;
10452;SDS011;5274;51.992;8.518;2022-07-15T00:21:11;6.07;;;1.90;;
10452;SDS011;5274;51.992;8.518;2022-07-15T00:23:37;4.82;;;2.03;;
10452;SDS011;5274;51.992;8.518;2022-07-15T00:26:02;6.65;;;2.35;;
10452;SDS011;5274;51.992;8.518;2022-07-15T00:28:28;2.95;;;1.92;;
10452;SDS011;5274;51.992;8.518;2022-07-15T00:30:53;4.38;;;1.90;;
10452;SDS011;5274;51.992;8.518;2022-07-15T00:33:20;6.88;;;2.25;;
10452;SDS011;5274;51.992;8.518;2022-07-15T00:35:46;5.15;;;2.47;;
10452;SDS011;5274;51.992;8.518;2022-07-15T00:38:12;3.58;;;2.33;;
10452;SDS011;5274;51.992;8.518;2022-07-15T00:40:47;3.75;;;2.30;;
10452;SDS011;5274;51.992;8.518;2022-07-15T00:43:15;2.10;;;1.90;;
10452;SDS011;5274;51.992;8.518;2022-07-15T00:45:42;5.80;;;2.10;;
10452;SDS011;5274;51.992;8.518;2022-07-15T00:48:08;2.67;;;1.95;;
10452;SDS011;5274;51.992;8.518;2022-07-15T00:50:34;3.83;;;2.00;;
10452;SDS011;5274;51.992;8.518;2022-07-15T00:53:01;3.33;;;2.10;;
10452;SDS011;5274;51.992;8.518;2022-07-15T00:55:32;4.07;;;2.15;;
10452;SDS011;5274;51.992;8.518;2022-07-15T00:58:03;6.55;;;2.00;;
10452;SDS011;5274;51.992;8.518;2022-07-15T01:00:30;6.55;;;2.22;;
10452;SDS011;5274;51.992;8.518;2022-07-15T01:02:57;3.33;;;2.20;;
10452;SDS011;5274;51.992;8.518;2022-07-15T01:05:24;8.57;;;2.05;;
10452;SDS011;5274;51.992;8.518;2022-07-15T01:07:50;2.97;;;2.17;;
10452;SDS011;5274;51.992;8.518;2022-07-15T01:10:17;5.25;;;2.88;;
10452;SDS011;5274;51.992;8.518;2022-07-15T01:12:44;5.78;;;2.38;;
10452;SDS011;5274;51.992;8.518;2022-07-15T01:15:12;4.22;;;2.05;;
10452;SDS011;5274;51.992;8.518;2022-07-15T01:17:37;3.22;;;2.15;;
10452;SDS011;5274;51.992;8.518;2022-07-15T01:20:03;3.33;;;2.10;;
10452;SDS011;5274;51.992;8.518;2022-07-15T01:22:30;6.45;;;2.40;;
10452;SDS011;5274;51.992;8.518;2022-07-15T01:24:56;4.38;;;2.70;;
10452;SDS011;5274;51.992;8.518;2022-07-15T01:27:21;4.28;;;2.67;;
10452;SDS011;5274;51.992;8.518;2022-07-15T01:29:46;7.95;;;2.75;;
10452;SDS011;5274;51.992;8.518;2022-07-15T01:32:12;5.88;;;2.75;;
10452;SDS011;5274;51.992;8.518;2022-07-15T01:34:38;4.78;;;2.80;;
10452;SDS011;5274;51.992;8.518;2022-07-15T01:37:03;5.40;;;2.83;;
10452;SDS011;5274;51.992;8.518;2022-07-15T01:39:29;4.70;;;2.50;;
10452;SDS011;5274;51.992;8.518;2022-07-15T01:41:54;4.93;;;2.78;;
10452;SDS011;5274;51.992;8.518;2022-07-15T01:44:20;5.38;;;1.92;;
10452;SDS011;5274;51.992;8.518;2022-07-15T01:46:45;6.95;;;2.65;;
10452;SDS011;5274;51.992;8.518;2022-07-15T01:49:11;5.05;;;2.58;;
10452;SDS011;5274;51.992;8.518;2022-07-15T01:51:55;3.67;;;2.40;;
10452;SDS011;5274;51.992;8.518;2022-07-15T01:54:22;5.05;;;1.83;;
10452;SDS011;5274;51.992;8.518;2022-07-15T01:56:49;9.70;;;2.83;;
10452;SDS011;5274;51.992;8.518;2022-07-15T01:59:16;6.07;;;2.38;;
10452;SDS011;5274;51.992;8.518;2022-07-15T02:01:42;9.88;;;2.40;;
10452;SDS011;5274;51.992;8.518;2022-07-15T02:04:08;5.97;;;2.28;;
10452;SDS011;5274;51.992;8.518;2022-07-15T02:06:34;4.43;;;2.50;;
10452;SDS011;5274;51.992;8.518;2022-07-15T02:09:00;4.05;;;2.42;;
10452;SDS011;5274;51.992;8.518;2022-07-15T02:11:25;8.13;;;2.33;;
10452;SDS011;5274;51.992;8.518;2022-07-15T02:13:51;3.55;;;2.10;;
10452;SDS011;5274;51.992;8.518;2022-07-15T02:16:21;5.40;;;2.35;;
10452;SDS011;5274;51.992;8.518;2022-07-15T02:18:46;7.18;;;2.58;;
10452;SDS011;5274;51.992;8.518;2022-07-15T02:21:12;6.43;;;2.60;;
10452;SDS011;5274;51.992;8.518;2022-07-15T02:23:37;3.88;;;2.67;;
10452;SDS011;5274;51.992;8.518;2022-07-15T02:26:03;4.97;;;2.40;;
10452;SDS011;5274;51.992;8.518;2022-07-15T02:28:28;5.50;;;2.58;;
10452;SDS011;5274;51.992;8.518;2022-07-15T02:30:54;7.45;;;3.50;;
10452;SDS011;5274;51.992;8.518;2022-07-15T02:33:19;8.65;;;2.78;;
10452;SDS011;5274;51.992;8.518;2022-07-15T02:35:45;5.50;;;2.80;;
10452;SDS011;5274;51.992;8.518;2022-07-15T02:38:11;4.80;;;2.45;;
10452;SDS011;5274;51.992;8.518;2022-07-15T02:40:36;7.93;;;1.95;;
10452;SDS011;5274;51.992;8.518;2022-07-15T02:43:02;5.85;;;2.28;;
10452;SDS011;5274;51.992;8.518;2022-07-15T02:45:30;5.30;;;2.35;;
10452;SDS011;5274;51.992;8.518;2022-07-15T02:47:58;3.88;;;2.33;;
10452;SDS011;5274;51.992;8.518;2022-07-15T02:50:24;6.75;;;2.40;;
10452;SDS011;5274;51.992;8.518;2022-07-15T02:52:49;8.35;;;2.40;;
10452;SDS011;5274;51.992;8.518;2022-07-15T02:55:15;5.07;;;2.45;;
10452;SDS011;5274;51.992;8.518;2022-07-15T02:57:41;3.90;;;2.35;;
10452;SDS011;5274;51.992;8.518;2022-07-15T03:00:07;4.70;;;2.33;;
10452;SDS011;5274;51.992;8.518;2022-07-15T03:02:36;7.43;;;2.90;;
10452;SDS011;5274;51.992;8.518;2022-07-15T03:05:02;5.18;;;2.65;;
10452;SDS011;5274;51.992;8.518;2022-07-15T03:07:28;2.85;;;2.38;;
10452;SDS011;5274;51.992;8.518;2022-07-15T03:09:54;10.20;;;2.80;;
10452;SDS011;5274;51.992;8.518;2022-07-15T03:12:20;6.65;;;3.28;;
10452;SDS011;5274;51.992;8.518;2022-07-15T03:14:46;7.65;;;2.70;;
10452;SDS011;5274;51.992;8.518;2022-07-15T03:17:11;7.40;;;2.72;;
10452;SDS011;5274;51.992;8.518;2022-07-15T03:19:37;6.10;;;2.42;;
10452;SDS011;5274;51.992;8.518;2022-07-15T03:22:03;8.32;;;3.05;;
10452;SDS011;5274;51.992;8.518;2022-07-15T03:24:28;6.07;;;2.75;;
10452;SDS011;5274;51.992;8.518;2022-07-15T03:26:54;10.32;;;2.95;;
10452;SDS011;5274;51.992;8.518;2022-07-15T03:29:19;6.20;;;2.97;;
10452;SDS011;5274;51.992;8.518;2022-07-15T03:31:45;5.03;;;2.75;;
10452;SDS011;5274;51.992;8.518;2022-07-15T03:34:10;10.13;;;2.83;;
10452;SDS011;5274;51.992;8.518;2022-07-15T03:36:37;11.23;;;3.05;;
10452;SDS011;5274;51.992;8.518;2022-07-15T03:39:06;6.55;;;2.97;;
10452;SDS011;5274;51.992;8.518;2022-07-15T03:41:32;6.88;;;3.35;;
10452;SDS011;5274;51.992;8.518;2022-07-15T03:43:59;7.07;;;2.42;;
10452;SDS011;5274;51.992;8.518;2022-07-15T03:46:25;9.63;;;2.85;;
10452;SDS011;5274;51.992;8.518;2022-07-15T03:48:51;6.97;;;2.83;;
10452;SDS011;5274;51.992;8.518;2022-07-15T03:51:16;8.45;;;2.50;;
10452;SDS011;5274;51.992;8.518;2022-07-15T03:53:42;7.28;;;2.40;;
10452;SDS011;5274;51.992;8.518;2022-07-15T03:56:08;7.55;;;2.30;;
10452;SDS011;5274;51.992;8.518;2022-07-15T03:58:33;6.20;;;2.35;;
10452;SDS011;5274;51.992;8.518;2022-07-15T04:00:59;4.65;;;2.60;;
10452;SDS011;5274;51.992;8.518;2022-07-15T04:03:24;5.07;;;2.17;;
10452;SDS011;5274;51.992;8.518;2022-07-15T04:05:50;6.32;;;2.70;;
10452;SDS011;5274;51.992;8.518;2022-07-15T04:08:16;6.35;;;2.45;;
10452;SDS011;5274;51.992;8.518;2022-07-15T04:10:41;11.27;;;3.17;;
10452;SDS011;5274;51.992;8.518;2022-07-15T04:13:07;7.45;;;3.05;;
10452;SDS011;5274;51.992;8.518;2022-07-15T04:15:32;6.38;;;2.47;;
10452;SDS011;5274;51.992;8.518;2022-07-15T04:17:57;6.20;;;2.47;;
10452;SDS011;5274;51.992;8.518;2022-07-15T04:20:23;10.02;;;3.30;;
10452;SDS011;5274;51.992;8.518;2022-07-15T04:22:50;5.80;;;2.50;;
10452;SDS011;5274;51.992;8.518;2022-07-15T04:25:17;6.53;;;3.00;;
10452;SDS011;5274;51.992;8.518;2022-07-15T04:27:44;7.70;;;2.83;;
10452;SDS011;5274;51.992;8.518;2022-07-15T04:30:10;6.30;;;3.08;;
10452;SDS011;5274;51.992;8.518;2022-07-15T04:32:37;4.10;;;2.60;;
10452;SDS011;5274;51.992;8.518;2022-07-15T04:35:03;11.35;;;3.55;;
10452;SDS011;5274;51.992;8.518;2022-07-15T04:37:29;9.93;;;3.03;;
10452;SDS011;5274;51.992;8.518;2022-07-15T04:39:54;5.18;;;2.95;;
10452;SDS011;5274;51.992;8.518;2022-07-15T04:42:21;7.07;;;2.90;;
10452;SDS011;5274;51.992;8.518;2022-07-15T04:44:46;13.07;;;3.80;;
10452;SDS011;5274;51.992;8.518;2022-07-15T04:47:13;11.70;;;3.38;;
10452;SDS011;5274;51.992;8.518;2022-07-15T04:49:38;5.30;;;3.30;;
10452;SDS011;5274;51.992;8.518;2022-07-15T04:52:23;7.97;;;3.55;;
10452;SDS011;5274;51.992;8.518;2022-07-15T04:54:52;7.60;;;3.40;;
10452;SDS011;5274;51.992;8.518;2022-07-15T04:57:18;6.90;;;3.80;;
10452;SDS011;5274;51.992;8.518;2022-07-15T04:59:44;11.40;;;4.88;;
10452;SDS011;5274;51.992;8.518;2022-07-15T05:02:10;15.57;;;4.68;;
10452;SDS011;5274;51.992;8.518;2022-07-15T05:04:35;11.88;;;6.10;;
10452;SDS011;5274;51.992;8.518;2022-07-15T05:07:01;12.18;;;5.90;;
10452;SDS011;5274;51.992;8.518;2022-07-15T05:09:26;11.20;;;6.03;;
10452;SDS011;5274;51.992;8.518;2022-07-15T05:11:52;9.63;;;6.82;;
10452;SDS011;5274;51.992;8.518;2022-07-15T05:14:18;16.08;;;7.38;;
10452;SDS011;5274;51.992;8.518;2022-07-15T05:16:43;12.60;;;6.25;;
10452;SDS011;5274;51.992;8.518;2022-07-15T05:19:08;12.60;;;6.80;;
10452;SDS011;5274;51.992;8.518;2022-07-15T05:21:34;13.15;;;5.68;;
10452;SDS011;5274;51.992;8.518;2022-07-15T05:23:59;10.13;;;5.63;;
10452;SDS011;5274;51.992;8.518;2022-07-15T05:26:25;10.55;;;5.28;;
10452;SDS011;5274;51.992;8.518;2022-07-15T05:28:50;11.82;;;5.22;;
10452;SDS011;5274;51.992;8.518;2022-07-15T05:31:16;10.75;;;5.35;;
10452;SDS011;5274;51.992;8.518;2022-07-15T05:33:42;8.07;;;4.05;;
10452;SDS011;5274;51.992;8.518;2022-07-15T05:36:14;9.95;;;4.82;;
10452;SDS011;5274;51.992;8.518;2022-07-15T05:38:41;8.48;;;4.38;;
10452;SDS011;5274;51.992;8.518;2022-07-15T05:41:07;11.13;;;4.28;;
10452;SDS011;5274;51.992;8.518;2022-07-15T05:43:33;8.80;;;4.53;;
10452;SDS011;5274;51.992;8.518;2022-07-15T05:45:59;8.18;;;4.30;;
10452;SDS011;5274;51.992;8.518;2022-07-15T05:48:25;10.13;;;4.07;;
10452;SDS011;5274;51.992;8.518;2022-07-15T05:50:50;11.13;;;3.85;;
10452;SDS011;5274;51.992;8.518;2022-07-15T05:53:16;10.35;;;3.40;;
10452;SDS011;5274;51.992;8.518;2022-07-15T05:55:41;9.63;;;3.08;;
10452;SDS011;5274;51.992;8.518;2022-07-15T05:58:07;7.38;;;3.22;;
10452;SDS011;5274;51.992;8.518;2022-07-15T06:00:34;8.73;;;3.38;;
10452;SDS011;5274;51.992;8.518;2022-07-15T06:03:00;7.07;;;3.15;;
10452;SDS011;5274;51.992;8.518;2022-07-15T06:05:27;6.47;;;3.60;;
10452;SDS011;5274;51.992;8.518;2022-07-15T06:07:53;7.10;;;3.28;;
10452;SDS011;5274;51.992;8.518;2022-07-15T06:10:18;9.98;;;3.60;;
10452;SDS011;5274;51.992;8.518;2022-07-15T06:12:44;7.50;;;3.13;;
10452;SDS011;5274;51.992;8.518;2022-07-15T06:15:10;9.73;;;2.40;;
10452;SDS011;5274;51.992;8.518;2022-07-15T06:17:36;10.85;;;3.20;;
10452;SDS011;5274;51.992;8.518;2022-07-15T06:20:02;9.10;;;2.88;;
10452;SDS011;5274;51.992;8.518;2022-07-15T06:22:29;6.25;;;2.53;;
10452;SDS011;5274;51.992;8.518;2022-07-15T06:24:54;6.93;;;2.15;;
10452;SDS011;5274;51.992;8.518;2022-07-15T06:27:20;7.30;;;2.35;;
10452;SDS011;5274;51.992;8.518;2022-07-15T06:29:49;7.60;;;2.50;;
10452;SDS011;5274;51.992;8.518;2022-07-15T06:32:14;5.93;;;2.70;;
10452;SDS011;5274;51.992;8.518;2022-07-15T06:34:40;5.45;;;2.90;;
10452;SDS011;5274;51.992;8.518;2022-07-15T06:37:06;4.85;;;2.28;;
10452;SDS011;5274;51.992;8.518;2022-07-15T06:39:32;6.35;;;2.30;;
10452;SDS011;5274;51.992;8.518;2022-07-15T06:41:58;10.85;;;2.40;;
10452;SDS011;5274;51.992;8.518;2022-07-15T06:44:24;6.07;;;2.10;;
10452;SDS011;5274;51.992;8.518;2022-07-15T06:46:49;5.30;;;2.30;;
10452;SDS011;5274;51.992;8.518;2022-07-15T06:49:15;4.93;;;2.20;;
10452;SDS011;5274;51.992;8.518;2022-07-15T06:51:40;8.75;;;2.17;;
10452;SDS011;5274;51.992;8.518;2022-07-15T06:54:06;14.70;;;2.95;;
10452;SDS011;5274;51.992;8.518;2022-07-15T06:56:32;6.32;;;1.90;;
10452;SDS011;5274;51.992;8.518;2022-07-15T06:58:58;8.48;;;2.25;;
10452;SDS011;5274;51.992;8.518;2022-07-15T07:01:23;5.22;;;1.98;;
10452;SDS011;5274;51.992;8.518;2022-07-15T07:03:49;5.47;;;1.92;;
10452;SDS011;5274;51.992;8.518;2022-07-15T07:06:15;8.27;;;1.83;;
10452;SDS011;5274;51.992;8.518;2022-07-15T07:08:40;8.55;;;2.50;;
10452;SDS011;5274;51.992;8.518;2022-07-15T07:11:06;4.22;;;2.30;;
10452;SDS011;5274;51.992;8.518;2022-07-15T07:13:31;5.32;;;2.08;;
10452;SDS011;5274;51.992;8.518;2022-07-15T07:15:57;3.58;;;1.83;;
10452;SDS011;5274;51.992;8.518;2022-07-15T07:18:22;6.40;;;1.80;;
10452;SDS011;5274;51.992;8.518;2022-07-15T07:20:48;4.22;;;1.80;;
10452;SDS011;5274;51.992;8.518;2022-07-15T07:23:13;7.53;;;2.63;;
10452;SDS011;5274;51.992;8.518;2022-07-15T07:25:39;6.82;;;1.98;;
10452;SDS011;5274;51.992;8.518;2022-07-15T07:28:04;5.63;;;2.05;;
10452;SDS011;5274;51.992;8.518;2022-07-15T07:30:30;3.38;;;1.92;;
10452;SDS011;5274;51.992;8.518;2022-07-15T07:32:56;4.70;;;1.77;;
10452;SDS011;5274;51.992;8.518;2022-07-15T07:35:21;5.70;;;1.90;;
10452;SDS011;5274;51.992;8.518;2022-07-15T07:37:47;7.43;;;1.80;;
10452;SDS011;5274;51.992;8.518;2022-07-15T07:40:12;6.28;;;1.83;;
10452;SDS011;5274;51.992;8.518;2022-07-15T07:42:38;5.03;;;1.58;;
10452;SDS011;5274;51.992;8.518;2022-07-15T07:45:04;5.00;;;1.80;;
10452;SDS011;5274;51.992;8.518;2022-07-15T07:47:32;8.88;;;1.30;;
10452;SDS011;5274;51.992;8.518;2022-07-15T07:50:02;4.03;;;1.63;;
10452;SDS011;5274;51.992;8.518;2022-07-15T07:52:29;2.72;;;1.27;;
10452;SDS011;5274;51.992;8.518;2022-07-15T07:54:54;3.17;;;1.20;;
10452;SDS011;5274;51.992;8.518;2022-07-15T07:57:20;4.22;;;1.30;;
10452;SDS011;5274;51.992;8.518;2022-07-15T07:59:45;3.80;;;1.27;;
10452;SDS011;5274;51.992;8.518;2022-07-15T08:02:11;3.47;;;1.23;;
10452;SDS011;5274;51.992;8.518;2022-07-15T08:04:36;3.50;;;1.42;;
10452;SDS011;5274;51.992;8.518;2022-07-15T08:07:03;2.75;;;1.02;;
10452;SDS011;5274;51.992;8.518;2022-07-15T08:09:31;4.25;;;1.20;;
10452;SDS011;5274;51.992;8.518;2022-07-15T08:11:56;3.90;;;1.45;;
10452;SDS011;5274;51.992;8.518;2022-07-15T08:14:22;8.32;;;1.35;;
10452;SDS011;5274;51.992;8.518;2022-07-15T08:16:49;3.28;;;1.00;;
10452;SDS011;5274;51.992;8.518;2022-07-15T08:19:15;4.75;;;1.13;;
10452;SDS011;5274;51.992;8.518;2022-07-15T08:21:41;2.30;;;1.23;;
10452;SDS011;5274;51.992;8.518;2022-07-15T08:24:07;2.15;;;1.27;;
10452;SDS011;5274;51.992;8.518;2022-07-15T08:26:33;3.13;;;1.50;;
10452;SDS011;5274;51.992;8.518;2022-07-15T08:28:58;3.70;;;1.13;;
10452;SDS011;5274;51.992;8.518;2022-07-15T08:31:24;5.97;;;1.20;;
10452;SDS011;5274;51.992;8.518;2022-07-15T08:33:49;2.17;;;1.50;;
10452;SDS011;5274;51.992;8.518;2022-07-15T08:36:15;6.43;;;1.30;;
10452;SDS011;5274;51.992;8.518;2022-07-15T08:38:40;2.65;;;0.95;;
10452;SDS011;5274;51.992;8.518;2022-07-15T08:41:06;2.55;;;0.90;;
10452;SDS011;5274;51.992;8.518;2022-07-15T08:43:31;2.75;;;1.58;;
10452;SDS011;5274;51.992;8.518;2022-07-15T08:45:58;1.92;;;0.98;;
10452;SDS011;5274;51.992;8.518;2022-07-15T08:48:25;1.50;;;0.90;;
10452;SDS011;5274;51.992;8.518;2022-07-15T08:50:54;3.42;;;1.05;;
10452;SDS011;5274;51.992;8.518;2022-07-15T08:53:24;4.47;;;0.98;;
10452;SDS011;5274;51.992;8.518;2022-07-15T08:55:52;3.03;;;1.00;;
10452;SDS011;5274;51.992;8.518;2022-07-15T08:58:17;3.47;;;0.70;;
10452;SDS011;5274;51.992;8.518;2022-07-15T09:00:43;1.83;;;0.80;;
10452;SDS011;5274;51.992;8.518;2022-07-15T09:03:08;1.73;;;0.63;;
10452;SDS011;5274;51.992;8.518;2022-07-15T09:05:35;3.53;;;0.88;;
10452;SDS011;5274;51.992;8.518;2022-07-15T09:13:30;1.85;;;0.98;;
10452;SDS011;5274;51.992;8.518;2022-07-15T09:15:56;3.00;;;0.98;;
10452;SDS011;5274;51.992;8.518;2022-07-15T09:18:28;4.63;;;0.90;;
10452;SDS011;5274;51.992;8.518;2022-07-15T09:20:58;1.42;;;0.90;;
10452;SDS011;5274;51.992;8.518;2022-07-15T09:23:24;2.30;;;0.90;;
10452;SDS011;5274;51.992;8.518;2022-07-15T09:25:55;3.42;;;0.90;;
10452;SDS011;5274;51.992;8.518;2022-07-15T09:28:39;2.45;;;0.80;;
10452;SDS011;5274;51.992;8.518;2022-07-15T09:31:06;4.03;;;0.75;;
10452;SDS011;5274;51.992;8.518;2022-07-15T09:33:57;1.40;;;0.70;;
10452;SDS011;5274;51.992;8.518;2022-07-15T09:36:25;1.95;;;0.93;;
10452;SDS011;5274;51.992;8.518;2022-07-15T09:38:54;1.90;;;0.70;;
10452;SDS011;5274;51.992;8.518;2022-07-15T09:44:10;0.98;;;0.75;;
10452;SDS011;5274;51.992;8.518;2022-07-15T09:46:50;1.65;;;0.63;;
10452;SDS011;5274;51.992;8.518;2022-07-15T09:51:57;3.25;;;0.70;;
10452;SDS011;5274;51.992;8.518;2022-07-15T09:54:26;2.97;;;0.70;;
10452;SDS011;5274;51.992;8.518;2022-07-15T09:56:55;3.03;;;0.60;;
10452;SDS011;5274;51.992;8.518;2022-07-15T09:59:23;2.47;;;0.70;;
10452;SDS011;5274;51.992;8.518;2022-07-15T10:01:49;2.80;;;0.70;;
10452;SDS011;5274;51.992;8.518;2022-07-15T10:04:16;1.17;;;0.63;;
10452;SDS011;5274;51.992;8.518;2022-07-15T10:06:44;1.80;;;0.77;;
10452;SDS011;5274;51.992;8.518;2022-07-15T10:09:12;5.20;;;0.93;;
10452;SDS011;5274;51.992;8.518;2022-07-15T10:11:38;2.00;;;0.70;;
10452;SDS011;5274;51.992;8.518;2022-07-15T10:14:15;2.78;;;0.77;;
10452;SDS011;5274;51.992;8.518;2022-07-15T10:20:22;2.63;;;0.93;;
10452;SDS011;5274;51.992;8.518;2022-07-15T10:23:18;3.42;;;0.85;;
10452;SDS011;5274;51.992;8.518;2022-07-15T10:28:54;2.17;;;0.88;;
10452;SDS011;5274;51.992;8.518;2022-07-15T10:31:23;2.15;;;0.70;;
10452;SDS011;5274;51.992;8.518;2022-07-15T10:39:11;2.35;;;0.80;;
10452;SDS011;5274;51.992;8.518;2022-07-15T10:44:29;2.75;;;1.08;;
10452;SDS011;5274;51.992;8.518;2022-07-15T10:49:43;0.60;;;0.60;;
10452;SDS011;5274;51.992;8.518;2022-07-15T10:57:17;1.98;;;0.77;;
10452;SDS011;5274;51.992;8.518;2022-07-15T10:59:52;0.70;;;0.60;;
10452;SDS011;5274;51.992;8.518;2022-07-15T11:02:20;1.83;;;0.90;;
10452;SDS011;5274;51.992;8.518;2022-07-15T11:04:48;5.72;;;0.82;;
10452;SDS011;5274;51.992;8.518;2022-07-15T11:09:51;6.10;;;0.52;;
10452;SDS011;5274;51.992;8.518;2022-07-15T11:12:18;1.52;;;0.60;;
10452;SDS011;5274;51.992;8.518;2022-07-15T11:14:44;0.68;;;0.50;;
10452;SDS011;5274;51.992;8.518;2022-07-15T11:17:16;0.95;;;0.63;;
10452;SDS011;5274;51.992;8.518;2022-07-15T11:19:48;2.38;;;0.80;;
10452;SDS011;5274;51.992;8.518;2022-07-15T11:22:16;1.00;;;0.60;;
10452;SDS011;5274;51.992;8.518;2022-07-15T11:24:43;1.50;;;0.52;;
10452;SDS011;5274;51.992;8.518;2022-07-15T11:27:09;0.98;;;0.50;;
10452;SDS011;5274;51.992;8.518;2022-07-15T11:29:42;1.40;;;0.70;;
10452;SDS011;5274;51.992;8.518;2022-07-15T11:32:13;2.38;;;0.70;;
10452;SDS011;5274;51.992;8.518;2022-07-15T11:34:43;1.00;;;0.70;;
10452;SDS011;5274;51.992;8.518;2022-07-15T11:37:11;3.08;;;0.60;;
10452;SDS011;5274;51.992;8.518;2022-07-15T11:39:43;0.77;;;0.55;;
10452;SDS011;5274;51.992;8.518;2022-07-15T11:42:16;1.17;;;0.50;;
10452;SDS011;5274;51.992;8.518;2022-07-15T11:45:02;2.83;;;0.57;;
10452;SDS011;5274;51.992;8.518;2022-07-15T11:47:28;4.15;;;0.88;;
10452;SDS011;5274;51.992;8.518;2022-07-15T11:49:57;1.85;;;0.85;;
10452;SDS011;5274;51.992;8.518;2022-07-15T11:52:28;2.20;;;0.70;;
10452;SDS011;5274;51.992;8.518;2022-07-15T11:54:54;3.08;;;0.68;;
10452;SDS011;5274;51.992;8.518;2022-07-15T11:57:20;2.88;;;0.57;;
10452;SDS011;5274;51.992;8.518;2022-07-15T11:59:55;1.95;;;0.70;;
10452;SDS011;5274;51.992;8.518;2022-07-15T12:02:23;0.90;;;0.50;;
10452;SDS011;5274;51.992;8.518;2022-07-15T12:04:50;0.65;;;0.40;;
10452;SDS011;5274;51.992;8.518;2022-07-15T12:07:17;2.67;;;0.70;;
10452;SDS011;5274;51.992;8.518;2022-07-15T12:09:43;1.75;;;0.70;;
10452;SDS011;5274;51.992;8.518;2022-07-15T12:12:14;3.88;;;0.70;;
10452;SDS011;5274;51.992;8.518;2022-07-15T12:14:40;1.83;;;0.80;;
10452;SDS011;5274;51.992;8.518;2022-07-15T12:17:07;2.65;;;0.77;;
10452;SDS011;5274;51.992;8.518;2022-07-15T12:19:34;1.73;;;0.60;;
10452;SDS011;5274;51.992;8.518;2022-07-15T12:22:04;2.75;;;0.47;;
10452;SDS011;5274;51.992;8.518;2022-07-15T12:24:47;1.55;;;0.50;;
10452;SDS011;5274;51.992;8.518;2022-07-15T12:27:18;2.40;;;0.63;;
10452;SDS011;5274;51.992;8.518;2022-07-15T12:30:04;2.47;;;0.63;;
10452;SDS011;5274;51.992;8.518;2022-07-15T12:32:31;1.27;;;0.80;;
10452;SDS011;5274;51.992;8.518;2022-07-15T12:34:58;1.05;;;0.57;;
10452;SDS011;5274;51.992;8.518;2022-07-15T12:37:26;0.90;;;0.60;;
10452;SDS011;5274;51.992;8.518;2022-07-15T12:40:11;0.68;;;0.50;;
10452;SDS011;5274;51.992;8.518;2022-07-15T12:45:13;0.65;;;0.40;;
10452;SDS011;5274;51.992;8.518;2022-07-15T12:48:22;1.75;;;0.50;;
10452;SDS011;5274;51.992;8.518;2022-07-15T12:50:32;0.65;;;0.40;;
10452;SDS011;5274;51.992;8.518;2022-07-15T12:53:18;4.60;;;0.45;;
10452;SDS011;5274;51.992;8.518;2022-07-15T12:55:46;1.00;;;0.47;;
10452;SDS011;5274;51.992;8.518;2022-07-15T12:58:16;2.72;;;0.98;;
10452;SDS011;5274;51.992;8.518;2022-07-15T13:00:47;1.60;;;0.77;;
10452;SDS011;5274;51.992;8.518;2022-07-15T13:03:19;1.13;;;0.65;;
10452;SDS011;5274;51.992;8.518;2022-07-15T13:05:48;1.52;;;0.50;;
10452;SDS011;5274;51.992;8.518;2022-07-15T13:08:19;2.22;;;0.43;;
10452;SDS011;5274;51.992;8.518;2022-07-15T13:10:48;1.35;;;0.40;;
10452;SDS011;5274;51.992;8.518;2022-07-15T13:13:15;1.27;;;0.40;;
10452;SDS011;5274;51.992;8.518;2022-07-15T13:15:42;0.82;;;0.40;;
10452;SDS011;5274;51.992;8.518;2022-07-15T13:18:08;2.10;;;0.50;;
10452;SDS011;5274;51.992;8.518;2022-07-15T13:20:34;2.45;;;0.52;;
10452;SDS011;5274;51.992;8.518;2022-07-15T13:22:59;3.85;;;0.68;;
10452;SDS011;5274;51.992;8.518;2022-07-15T13:25:27;1.60;;;0.68;;
10452;SDS011;5274;51.992;8.518;2022-07-15T13:27:54;1.00;;;0.70;;
10452;SDS011;5274;51.992;8.518;2022-07-15T13:30:19;2.05;;;0.60;;
10452;SDS011;5274;51.992;8.518;2022-07-15T13:32:45;7.18;;;0.70;;
10452;SDS011;5274;51.992;8.518;2022-07-15T13:35:12;0.90;;;0.40;;
10452;SDS011;5274;51.992;8.518;2022-07-15T13:37:38;0.43;;;0.43;;
10452;SDS011;5274;51.992;8.518;2022-07-15T13:40:05;3.47;;;0.52;;
10452;SDS011;5274;51.992;8.518;2022-07-15T13:42:32;2.30;;;0.50;;
10452;SDS011;5274;51.992;8.518;2022-07-15T13:44:58;5.63;;;0.70;;
10452;SDS011;5274;51.992;8.518;2022-07-15T13:47:25;4.78;;;0.60;;
10452;SDS011;5274;51.992;8.518;2022-07-15T13:49:51;2.42;;;0.70;;
10452;SDS011;5274;51.992;8.518;2022-07-15T13:52:44;1.48;;;0.60;;
10452;SDS011;5274;51.992;8.518;2022-07-15T13:55:11;1.85;;;0.80;;
10452;SDS011;5274;51.992;8.518;2022-07-15T13:57:38;1.63;;;0.55;;
10452;SDS011;5274;51.992;8.518;2022-07-15T14:00:04;0.65;;;0.65;;
10452;SDS011;5274;51.992;8.518;2022-07-15T14:02:32;1.10;;;0.50;;
10452;SDS011;5274;51.992;8.518;2022-07-15T14:04:58;1.85;;;0.50;;
10452;SDS011;5274;51.992;8.518;2022-07-15T14:07:24;3.45;;;0.60;;
10452;SDS011;5274;51.992;8.518;2022-07-15T14:09:49;1.42;;;0.47;;
10452;SDS011;5274;51.992;8.518;2022-07-15T14:12:15;1.45;;;0.70;;
10452;SDS011;5274;51.992;8.518;2022-07-15T14:14:40;0.85;;;0.47;;
10452;SDS011;5274;51.992;8.518;2022-07-15T14:17:06;4.32;;;0.65;;
10452;SDS011;5274;51.992;8.518;2022-07-15T14:19:31;2.63;;;0.85;;
10452;SDS011;5274;51.992;8.518;2022-07-15T14:21:57;2.28;;;0.50;;
10452;SDS011;5274;51.992;8.518;2022-07-15T14:24:22;0.57;;;0.50;;
10452;SDS011;5274;51.992;8.518;2022-07-15T14:26:48;0.75;;;0.60;;
10452;SDS011;5274;51.992;8.518;2022-07-15T14:29:13;2.03;;;0.50;;
10452;SDS011;5274;51.992;8.518;2022-07-15T14:31:39;0.63;;;0.40;;
10452;SDS011;5274;51.992;8.518;2022-07-15T14:34:05;0.80;;;0.47;;
10452;SDS011;5274;51.992;8.518;2022-07-15T14:36:31;1.25;;;0.50;;
10452;SDS011;5274;51.992;8.518;2022-07-15T14:38:56;0.70;;;0.68;;
10452;SDS011;5274;51.992;8.518;2022-07-15T14:41:22;1.50;;;0.50;;
10452;SDS011;5274;51.992;8.518;2022-07-15T14:43:47;1.95;;;0.50;;
10452;SDS011;5274;51.992;8.518;2022-07-15T14:46:13;0.90;;;0.40;;
10452;SDS011;5274;51.992;8.518;2022-07-15T14:48:38;2.78;;;0.77;;
10452;SDS011;5274;51.992;8.518;2022-07-15T14:51:04;1.40;;;0.70;;
10452;SDS011;5274;51.992;8.518;2022-07-15T14:53:29;0.68;;;0.65;;
10452;SDS011;5274;51.992;8.518;2022-07-15T14:55:55;1.88;;;0.93;;
10452;SDS011;5274;51.992;8.518;2022-07-15T14:58:20;0.85;;;0.50;;
10452;SDS011;5274;51.992;8.518;2022-07-15T15:00:46;1.48;;;0.55;;
10452;SDS011;5274;51.992;8.518;2022-07-15T15:03:13;0.90;;;0.40;;
10452;SDS011;5274;51.992;8.518;2022-07-15T15:05:40;5.50;;;2.47;;
10452;SDS011;5274;51.992;8.518;2022-07-15T15:08:06;1.75;;;0.57;;
10452;SDS011;5274;51.992;8.518;2022-07-15T15:10:31;1.45;;;0.63;;
10452;SDS011;5274;51.992;8.518;2022-07-15T15:12:57;1.65;;;0.70;;
10452;SDS011;5274;51.992;8.518;2022-07-15T15:15:22;0.73;;;0.43;;
10452;SDS011;5274;51.992;8.518;2022-07-15T15:17:48;1.05;;;0.70;;
10452;SDS011;5274;51.992;8.518;2022-07-15T15:20:15;1.05;;;0.55;;
10452;SDS011;5274;51.992;8.518;2022-07-15T15:22:40;0.60;;;0.30;;
10452;SDS011;5274;51.992;8.518;2022-07-15T15:25:06;1.27;;;0.57;;
10452;SDS011;5274;51.992;8.518;2022-07-15T15:27:32;0.95;;;0.40;;
10452;SDS011;5274;51.992;8.518;2022-07-15T15:29:58;2.05;;;0.52;;
10452;SDS011;5274;51.992;8.518;2022-07-15T15:32:24;1.25;;;0.50;;
10452;SDS011;5274;51.992;8.518;2022-07-15T15:34:50;2.05;;;0.60;;
10452;SDS011;5274;51.992;8.518;2022-07-15T15:37:16;1.20;;;0.55;;
10452;SDS011;5274;51.992;8.518;2022-07-15T15:39:42;0.77;;;0.63;;